Time;durP1;ratioP1;P1;durP2;ratioP2;P2;SDS_P1;SDS_P2;PMS_P1;PMS_P2;Temp;Humidity;BMP_temperature;BMP_pressure;BME280_temperature;BME280_humidity;BME280_pressure;Samples;Min_cycle;Max_cycle;Signal;HPM_P1;HPM_P2
2022/10/24 05:03:45;;;;;;;9.27;1.90;;;16.40;99.90;;;;;;4979683;28;20049;-74
2022/10/24 05:06:11;;;;;;;8.63;2.05;;;16.60;99.90;;;;;;4984353;28;20219;-70
2022/10/24 05:08:37;;;;;;;8.30;1.75;;;16.60;99.90;;;;;;4984115;28;20031;-73
2022/10/24 05:11:05;;;;;;;7.07;1.80;;;16.70;99.90;;;;;;4983350;28;20314;-71
2022/10/24 05:13:31;;;;;;;9.05;2.17;;;16.80;99.90;;;;;;4984445;28;20030;-71
2022/10/24 05:16:00;;;;;;;11.68;2.03;;;16.90;99.90;;;;;;4966628;28;20037;-70
2022/10/24 05:18:26;;;;;;;7.80;1.83;;;17.00;99.90;;;;;;4982756;28;20030;-71
2022/10/24 05:20:55;;;;;;;7.15;1.80;;;17.20;99.90;;;;;;4964147;29;20035;-71
2022/10/24 05:23:21;;;;;;;6.47;1.65;;;17.40;99.90;;;;;;4964587;29;20054;-71
2022/10/24 05:25:47;;;;;;;9.38;2.35;;;17.60;99.90;;;;;;4964433;29;20035;-71
2022/10/24 05:28:13;;;;;;;7.88;1.80;;;17.70;99.90;;;;;;4964987;29;20205;-71
2022/10/24 05:30:38;;;;;;;10.52;1.75;;;17.80;99.90;;;;;;4964433;29;20057;-73
2022/10/24 05:33:04;;;;;;;9.98;1.70;;;17.90;99.90;;;;;;4964496;29;20031;-73
2022/10/24 05:35:30;;;;;;;10.95;2.22;;;17.90;99.90;;;;;;4975775;28;20038;-72
2022/10/24 05:37:55;;;;;;;9.77;1.67;;;17.90;99.90;;;;;;4983078;28;20136;-73
2022/10/24 05:40:21;;;;;;;10.43;2.33;;;18.00;99.90;;;;;;4966726;28;20090;-72
2022/10/24 05:42:48;;;;;;;8.07;2.78;;;17.90;99.90;;;;;;4982915;28;20038;-72
2022/10/24 05:45:14;;;;;;;10.13;2.28;;;17.90;99.90;;;;;;4983793;28;20281;-71
2022/10/24 05:47:40;;;;;;;7.30;1.63;;;17.90;99.90;;;;;;4983324;28;20094;-72
2022/10/24 05:50:06;;;;;;;7.68;1.83;;;17.90;99.90;;;;;;4982253;28;20216;-71
2022/10/24 05:52:35;;;;;;;4.40;1.40;;;17.90;99.90;;;;;;4983373;28;20027;-71
2022/10/24 05:55:02;;;;;;;;;;;17.90;99.90;;;;;;4983541;28;20050;-71
2022/10/24 05:57:28;;;;;;;9.77;2.05;;;17.90;99.90;;;;;;4983793;28;19941;-72
2022/10/24 05:59:54;;;;;;;6.53;1.50;;;17.80;99.90;;;;;;4983268;28;20026;-71
2022/10/24 06:02:20;;;;;;;6.28;1.73;;;17.80;99.90;;;;;;4982861;28;20059;-72
2022/10/24 06:04:47;;;;;;;5.13;1.42;;;17.80;99.90;;;;;;4982406;28;20034;-70
2022/10/24 06:07:13;;;;;;;7.72;1.30;;;17.90;99.90;;;;;;4967091;28;20325;-74
2022/10/24 06:09:40;;;;;;;6.13;1.70;;;17.90;99.90;;;;;;4980851;28;20097;-73
2022/10/24 06:12:08;;;;;;;24.27;3.17;;;16.50;99.90;;;;;;4965811;28;20224;-72
2022/10/24 06:14:35;;;;;;;8.48;2.28;;;15.30;99.90;;;;;;4980855;28;20225;-72
2022/10/24 06:17:07;;;;;;;6.25;1.70;;;14.40;99.90;;;;;;4976104;28;20023;-72
2022/10/24 06:19:39;;;;;;;8.45;1.90;;;14.10;99.90;;;;;;4969548;28;20281;-71
2022/10/24 06:22:06;;;;;;;14.88;2.55;;;14.10;99.90;;;;;;4972385;28;20224;-71
2022/10/24 06:24:37;;;;;;;9.88;2.80;;;14.10;99.90;;;;;;4968156;28;20030;-72
2022/10/24 06:27:30;;;;;;;8.88;2.85;;;14.10;99.90;;;;;;4924520;29;20035;-72
2022/10/24 06:33:39;;;;;;;12.25;2.92;;;14.30;99.90;;;;;;4921693;29;20096;-71
2022/10/24 06:36:08;;;;;;;12.27;3.70;;;14.40;99.90;;;;;;4922226;29;20039;-72
2022/10/24 06:38:37;;;;;;;6.03;2.28;;;14.50;99.90;;;;;;4922499;29;20152;-72
2022/10/24 06:41:10;;;;;;;7.80;2.53;;;14.50;99.90;;;;;;4922215;29;20032;-73
2022/10/24 06:43:37;;;;;;;11.15;2.50;;;14.60;99.90;;;;;;4920563;29;20040;-72
2022/10/24 06:46:07;;;;;;;8.73;2.53;;;14.60;99.90;;;;;;4912055;29;20321;-72
2022/10/24 06:48:34;;;;;;;8.65;2.67;;;14.70;99.90;;;;;;4921119;29;20036;-71
2022/10/24 06:51:01;;;;;;;6.97;2.22;;;14.60;99.90;;;;;;4917975;29;20095;-73
2022/10/24 06:53:26;;;;;;;8.32;2.22;;;14.60;99.90;;;;;;4921344;29;20040;-72
2022/10/24 06:55:52;;;;;;;7.45;2.38;;;14.60;99.90;;;;;;4924709;29;20095;-72
2022/10/24 06:58:18;;;;;;;12.00;2.45;;;14.70;99.90;;;;;;4925914;29;20337;-71
2022/10/24 07:00:44;;;;;;;6.15;2.08;;;14.60;99.90;;;;;;4925278;29;20051;-69
2022/10/24 07:03:14;;;;;;;8.40;2.33;;;14.70;99.90;;;;;;4924832;29;20135;-72
2022/10/24 07:05:40;;;;;;;9.60;2.67;;;14.70;99.90;;;;;;4967317;28;20046;-72
2022/10/24 07:08:05;;;;;;;6.35;2.80;;;14.70;99.90;;;;;;4984535;28;20220;-71
2022/10/24 07:10:31;;;;;;;9.75;2.60;;;14.80;99.90;;;;;;4968008;28;20015;-69
2022/10/24 07:12:57;;;;;;;11.80;2.92;;;14.80;99.90;;;;;;4985150;28;20220;-70
2022/10/24 07:15:23;;;;;;;7.50;2.53;;;14.80;99.90;;;;;;4967649;28;20053;-69
2022/10/24 07:17:48;;;;;;;10.13;3.10;;;14.80;99.90;;;;;;4985413;28;20031;-72
2022/10/24 07:20:14;;;;;;;8.57;3.08;;;14.80;99.90;;;;;;4985015;28;20086;-71
2022/10/24 07:22:41;;;;;;;9.38;3.25;;;14.80;99.90;;;;;;4984874;28;20114;-71
2022/10/24 07:25:07;;;;;;;6.03;2.80;;;14.70;99.90;;;;;;4984502;28;20148;-71
2022/10/24 07:27:33;;;;;;;10.98;2.70;;;14.80;99.90;;;;;;4980000;28;20057;-70
2022/10/24 07:29:59;;;;;;;8.18;2.92;;;14.90;99.90;;;;;;4965041;29;20030;-71
2022/10/24 07:32:25;;;;;;;10.23;2.78;;;14.80;99.90;;;;;;4974093;28;20022;-70
2022/10/24 07:34:51;;;;;;;12.18;3.08;;;14.80;99.90;;;;;;4967521;28;20085;-72
2022/10/24 07:37:17;;;;;;;9.50;2.67;;;14.90;99.90;;;;;;4984565;28;20256;-71
2022/10/24 07:39:45;;;;;;;10.82;2.92;;;14.90;99.90;;;;;;4984804;28;20094;-71
2022/10/24 07:42:12;;;;;;;8.37;2.90;;;15.00;99.90;;;;;;4984132;28;20089;-70
2022/10/24 07:44:37;;;;;;;10.82;3.28;;;15.00;99.90;;;;;;4984531;28;20826;-70
2022/10/24 07:47:05;;;;;;;10.52;3.40;;;15.00;99.90;;;;;;4984045;28;20035;-72
2022/10/24 07:49:34;;;;;;;8.50;3.10;;;15.00;99.90;;;;;;4984540;28;20069;-71
2022/10/24 07:52:00;;;;;;;7.50;3.25;;;15.00;99.90;;;;;;4984048;28;20035;-70
2022/10/24 07:54:27;;;;;;;8.30;3.22;;;15.00;99.90;;;;;;4984501;28;20053;-71
2022/10/24 07:56:53;;;;;;;9.65;2.88;;;15.10;99.90;;;;;;4984312;28;20031;-70
2022/10/24 07:59:19;;;;;;;12.13;3.50;;;15.10;99.90;;;;;;4984310;28;20042;-72
2022/10/24 08:01:45;;;;;;;8.15;2.80;;;15.20;99.90;;;;;;4983910;28;20050;-71
2022/10/24 08:04:10;;;;;;;12.75;3.58;;;15.20;99.90;;;;;;4966608;28;20061;-71
2022/10/24 08:06:36;;;;;;;11.27;3.00;;;15.20;99.90;;;;;;4983982;28;20090;-69
2022/10/24 08:09:02;;;;;;;7.90;2.67;;;15.10;99.90;;;;;;4983552;28;20056;-70
2022/10/24 08:11:30;;;;;;;7.35;2.33;;;15.00;99.90;;;;;;4964490;29;20118;-72
2022/10/24 08:13:56;;;;;;;7.28;1.85;;;14.80;99.90;;;;;;4964015;29;20098;-68
2022/10/24 08:16:23;;;;;;;8.00;2.28;;;14.70;99.90;;;;;;4963293;29;20423;-69
2022/10/24 08:18:50;;;;;;;9.10;2.13;;;14.60;99.90;;;;;;4964567;29;20038;-72
2022/10/24 08:21:17;;;;;;;5.00;1.98;;;14.50;99.90;;;;;;4973738;28;20094;-71
2022/10/24 08:23:46;;;;;;;8.57;1.88;;;14.50;99.90;;;;;;4983628;28;20051;-68
2022/10/24 08:26:14;;;;;;;3.90;1.38;;;14.50;99.90;;;;;;4982974;28;20300;-69
2022/10/24 08:28:40;;;;;;;6.75;1.80;;;14.60;99.90;;;;;;4983477;28;20251;-70
2022/10/24 08:31:10;;;;;;;6.60;2.30;;;14.70;99.90;;;;;;4966156;28;20055;-70
2022/10/24 08:33:37;;;;;;;7.03;1.85;;;14.70;99.90;;;;;;4983777;28;20034;-71
2022/10/24 08:36:10;;;;;;;8.85;1.90;;;14.70;99.90;;;;;;4982949;28;20029;-70
2022/10/24 08:38:36;;;;;;;6.72;1.88;;;14.80;99.90;;;;;;4984104;28;20038;-70
2022/10/24 08:41:02;;;;;;;7.20;1.95;;;14.80;99.90;;;;;;4982999;28;20070;-70
2022/10/24 08:43:28;;;;;;;5.97;1.85;;;14.90;99.90;;;;;;4983905;28;20212;-71
2022/10/24 08:46:04;;;;;;;9.05;2.75;;;15.10;99.90;;;;;;4983597;28;20379;-70
2022/10/24 08:48:42;;;;;;;8.40;2.80;;;15.20;99.90;;;;;;4983623;28;20019;-70
2022/10/24 08:51:24;;;;;;;5.60;2.50;;;15.30;99.90;;;;;;4982953;28;20047;-70
2022/10/24 08:53:55;;;;;;;8.27;2.50;;;15.30;99.90;;;;;;4983311;28;20090;-70
2022/10/24 08:56:21;;;;;;;6.82;2.50;;;15.50;99.90;;;;;;4983309;28;20054;-71
2022/10/24 08:58:50;;;;;;;9.07;2.25;;;15.50;99.90;;;;;;4971992;28;20042;-68
2022/10/24 09:01:28;;;;;;;6.80;2.38;;;15.60;99.90;;;;;;4981824;28;20034;-70
2022/10/24 09:03:57;;;;;;;7.32;2.03;;;15.40;99.90;;;;;;4975830;28;20106;-70
2022/10/24 09:06:28;;;;;;;6.43;2.50;;;15.40;99.90;;;;;;4963315;28;20102;-70
2022/10/24 09:09:03;;;;;;;6.20;2.00;;;15.40;99.90;;;;;;4963533;28;20046;-69
2022/10/24 09:12:00;;;;;;;6.47;1.65;;;15.10;99.90;;;;;;4963167;29;20057;-70
2022/10/24 09:14:31;;;;;;;7.63;2.03;;;15.00;99.90;;;;;;4963606;29;20046;-69
2022/10/24 09:17:01;;;;;;;6.50;1.75;;;14.80;99.90;;;;;;4956390;28;20067;-69
2022/10/24 09:19:30;;;;;;;7.07;1.70;;;14.90;99.90;;;;;;4963569;29;20045;-70
2022/10/24 09:21:58;;;;;;;8.63;2.00;;;14.90;99.90;;;;;;4978021;28;20035;-70
2022/10/24 09:24:30;;;;;;;5.70;1.90;;;14.90;99.90;;;;;;4988922;28;20431;-69
2022/10/24 09:26:59;;;;;;;6.57;1.70;;;15.00;99.90;;;;;;5001590;28;20069;-72
2022/10/24 09:29:28;;;;;;;5.15;1.80;;;15.20;99.90;;;;;;5001965;28;20464;-70
2022/10/24 09:31:54;;;;;;;4.70;1.75;;;15.30;99.90;;;;;;5001767;28;20046;-70
2022/10/24 09:34:20;;;;;;;7.45;2.45;;;15.40;99.90;;;;;;5001559;28;20034;-71
2022/10/24 09:36:46;;;;;;;7.28;1.70;;;15.30;99.90;;;;;;5001967;28;20022;-70
2022/10/24 09:39:33;;;;;;;5.90;2.22;;;15.30;99.90;;;;;;5000161;28;20028;-69
2022/10/24 09:42:00;;;;;;;5.53;1.85;;;15.40;99.90;;;;;;5000853;28;20061;-72
2022/10/24 09:44:42;;;;;;;6.10;1.77;;;15.40;99.90;;;;;;5001037;28;20124;-72
2022/10/24 09:47:23;;;;;;;5.88;2.00;;;15.30;99.90;;;;;;5001362;28;20371;-74
2022/10/24 09:49:49;;;;;;;7.63;2.10;;;15.40;99.90;;;;;;5001753;28;20034;-72
2022/10/24 09:52:25;;;;;;;6.35;2.20;;;15.40;99.90;;;;;;5000957;28;20098;-71
2022/10/24 09:55:15;;;;;;;7.90;2.58;;;15.40;99.90;;;;;;5000608;28;20083;-71
2022/10/24 09:57:41;;;;;;;8.30;1.90;;;15.40;99.90;;;;;;5001880;28;20113;-72
2022/10/24 10:00:21;;;;;;;8.85;2.28;;;15.40;99.90;;;;;;5001256;28;20073;-71
2022/10/24 10:03:20;;;;;;;6.40;2.10;;;15.50;99.90;;;;;;5012724;28;20217;-70
2022/10/24 10:05:49;;;;;;;6.15;2.22;;;15.50;99.90;;;;;;5002906;28;20048;-71
2022/10/24 10:08:28;;;;;;;9.63;2.58;;;15.60;99.90;;;;;;5020230;28;20034;-71
2022/10/24 10:11:03;;;;;;;9.43;3.00;;;15.60;99.90;;;;;;5021144;28;20037;-71
2022/10/24 10:13:36;;;;;;;9.48;2.97;;;15.60;99.90;;;;;;5021090;28;20362;-71
2022/10/24 10:16:04;;;;;;;9.15;2.63;;;15.70;99.90;;;;;;5020370;28;20064;-74
2022/10/24 10:18:51;;;;;;;8.90;2.78;;;15.80;99.90;;;;;;5020811;28;20073;-72
2022/10/24 10:21:24;;;;;;;7.47;2.70;;;15.90;99.90;;;;;;5019879;28;20071;-72
2022/10/24 10:23:51;;;;;;;7.32;2.10;;;15.90;99.90;;;;;;5021125;28;20034;-71
2022/10/24 10:26:22;;;;;;;8.15;2.33;;;15.80;99.90;;;;;;5020244;28;20030;-71
2022/10/24 10:28:59;;;;;;;7.72;2.00;;;15.90;99.90;;;;;;5021031;28;20084;-71
2022/10/24 10:31:36;;;;;;;6.53;2.10;;;15.70;99.90;;;;;;5024774;28;20038;-72
2022/10/24 10:34:39;;;;;;;6.47;1.48;;;15.50;99.90;;;;;;5023903;28;20030;-76
2022/10/24 10:37:27;;;;;;;7.55;1.33;;;15.30;99.90;;;;;;5024388;28;20088;-71
2022/10/24 10:40:15;;;;;;;6.57;1.77;;;15.30;99.90;;;;;;5024468;28;20145;-71
2022/10/24 10:43:14;;;;;;;7.00;1.30;;;15.40;99.90;;;;;;5024631;28;20042;-70
2022/10/24 10:45:53;;;;;;;6.10;1.25;;;15.40;99.90;;;;;;5024657;28;20088;-71
2022/10/24 10:48:54;;;;;;;6.00;1.55;;;15.40;99.90;;;;;;5024100;28;20045;-73
2022/10/24 10:51:48;;;;;;;5.80;1.50;;;15.50;99.90;;;;;;5024465;28;20324;-71
2022/10/24 10:54:31;;;;;;;7.55;1.38;;;15.80;99.90;;;;;;5014147;28;20042;-70
2022/10/24 10:57:26;;;;;;;4.93;1.40;;;16.10;99.90;;;;;;5024680;28;20038;-71
2022/10/24 11:00:12;;;;;;;3.78;1.10;;;16.50;99.90;;;;;;5024380;28;20060;-72
2022/10/24 11:03:09;;;;;;;5.57;1.33;;;16.80;99.90;;;;;;5024064;28;20054;-73
2022/10/24 11:06:05;;;;;;;4.28;1.02;;;17.00;99.90;;;;;;5024489;28;20022;-72
2022/10/24 11:08:49;;;;;;;3.90;1.25;;;17.10;99.90;;;;;;5024583;28;20038;-75
2022/10/24 11:11:23;;;;;;;6.15;1.00;;;17.20;99.90;;;;;;5023790;28;20046;-73
2022/10/24 11:14:02;;;;;;;4.30;1.00;;;17.30;99.90;;;;;;5024485;28;20030;-72
2022/10/24 11:16:29;;;;;;;3.60;0.82;;;17.30;99.90;;;;;;5024208;28;20060;-72
2022/10/24 11:19:00;;;;;;;3.22;0.75;;;17.50;99.90;;;;;;5023989;28;20197;-74
2022/10/24 11:21:32;;;;;;;4.00;0.70;;;17.50;99.90;;;;;;5024004;28;20273;-71
2022/10/24 11:24:17;;;;;;;5.78;1.25;;;17.60;99.90;;;;;;5023950;28;20045;-71
2022/10/24 11:26:51;;;;;;;3.65;0.82;;;17.70;99.90;;;;;;5023571;28;20030;-71
2022/10/24 11:29:29;;;;;;;3.63;1.10;;;17.70;99.90;;;;;;5006099;28;20060;-72
2022/10/24 11:32:02;;;;;;;4.88;1.02;;;17.70;99.90;;;;;;5006408;28;20080;-72
2022/10/24 11:34:39;;;;;;;3.95;0.70;;;17.80;99.90;;;;;;5015680;28;20042;-73
2022/10/24 11:37:26;;;;;;;3.15;0.85;;;17.80;99.90;;;;;;4991764;28;20431;-74
2022/10/24 11:40:12;;;;;;;3.35;0.88;;;17.90;99.90;;;;;;5003992;28;20037;-72
2022/10/24 11:42:55;;;;;;;5.25;0.80;;;18.00;99.90;;;;;;5014754;28;20038;-71
2022/10/24 11:45:28;;;;;;;3.38;0.77;;;18.00;99.90;;;;;;5022861;28;20033;-71
2022/10/24 11:48:12;;;;;;;3.92;1.08;;;18.00;99.90;;;;;;5023390;28;20232;-71
2022/10/24 11:51:01;;;;;;;4.05;0.80;;;18.10;99.90;;;;;;5023557;28;20037;-78
2022/10/24 11:53:33;;;;;;;2.40;0.57;;;18.20;99.90;;;;;;5023022;28;20048;-75
2022/10/24 11:56:14;;;;;;;5.20;0.85;;;18.20;99.90;;;;;;5023571;28;20038;-73
2022/10/24 11:59:11;;;;;;;6.75;0.90;;;18.20;99.90;;;;;;5023385;28;20366;-73
2022/10/24 12:01:55;;;;;;;2.95;0.73;;;18.10;99.90;;;;;;5022739;28;20041;-74
2022/10/24 12:04:56;;;;;;;3.78;0.85;;;18.30;99.90;;;;;;5022682;28;20072;-71
2022/10/24 12:08:06;;;;;;;4.05;0.80;;;18.30;99.90;;;;;;4951992;28;20029;-72
2022/10/24 12:11:09;;;;;;;4.32;0.93;;;18.40;99.90;;;;;;4924167;29;20040;-73
2022/10/24 12:14:01;;;;;;;5.68;0.80;;;18.40;99.90;;;;;;5003629;28;20088;-74
2022/10/24 12:16:51;;;;;;;4.28;0.98;;;18.40;99.90;;;;;;5003049;28;20045;-72
2022/10/24 12:19:20;;;;;;;4.82;0.80;;;18.30;99.90;;;;;;4984898;28;20054;-74
2022/10/24 12:22:00;;;;;;;3.08;0.70;;;18.30;99.90;;;;;;5016990;28;20042;-74
2022/10/24 12:24:29;;;;;;;3.42;0.68;;;18.20;99.90;;;;;;5022508;28;20029;-72
2022/10/24 12:27:28;;;;;;;3.13;0.70;;;18.20;99.90;;;;;;5022833;28;20030;-72
2022/10/24 12:30:07;;;;;;;2.70;0.57;;;18.30;99.90;;;;;;5022366;28;20335;-73
2022/10/24 12:32:40;;;;;;;3.35;1.33;;;18.20;99.90;;;;;;5022723;28;20038;-72
2022/10/24 12:35:45;;;;;;;1.50;0.50;;;18.30;99.90;;;;;;5021493;28;20027;-73
2022/10/24 12:38:34;;;;;;;3.10;0.68;;;18.30;99.90;;;;;;4924923;29;20099;-74
2022/10/24 12:41:05;;;;;;;1.48;0.50;;;18.20;99.90;;;;;;4957213;28;20475;-72
2022/10/24 12:43:35;;;;;;;3.55;0.40;;;18.30;99.90;;;;;;5021091;28;20063;-72
2022/10/24 12:46:23;;;;;;;2.55;0.60;;;18.30;99.90;;;;;;5022300;28;20043;-72
2022/10/24 12:49:01;;;;;;;2.20;0.52;;;18.40;99.90;;;;;;5018084;28;20089;-73
2022/10/24 12:51:40;;;;;;;1.45;0.43;;;18.40;99.90;;;;;;5010741;28;20205;-72
2022/10/24 12:54:12;;;;;;;1.73;0.40;;;18.40;99.90;;;;;;5021026;28;20113;-71
2022/10/24 12:56:54;;;;;;;4.28;0.50;;;18.40;99.90;;;;;;5022278;28;20029;-75
2022/10/24 12:59:54;;;;;;;3.38;0.75;;;18.40;99.90;;;;;;5022269;28;20102;-72
2022/10/24 13:02:29;;;;;;;1.85;0.35;;;18.50;99.90;;;;;;5021458;28;20046;-74
2022/10/24 13:05:35;;;;;;;3.78;0.60;;;18.70;99.90;;;;;;5022161;28;20328;-75
2022/10/24 13:08:49;;;;;;;2.92;0.50;;;18.80;99.90;;;;;;5021826;28;20025;-73
2022/10/24 13:11:43;;;;;;;1.95;0.60;;;19.00;99.90;;;;;;5019199;28;20108;-73
2022/10/24 13:14:49;;;;;;;4.82;0.70;;;19.00;99.90;;;;;;5021473;28;20201;-72
2022/10/24 13:17:26;;;;;;;2.42;0.50;;;19.10;99.90;;;;;;5021860;28;20038;-72
2022/10/24 13:20:16;;;;;;;2.83;0.60;;;19.10;99.90;;;;;;5021408;28;20034;-73
2022/10/24 13:22:43;;;;;;;4.75;0.80;;;18.90;99.90;;;;;;5010798;28;20076;-74
2022/10/24 13:25:39;;;;;;;1.52;0.40;;;18.90;99.90;;;;;;5021624;28;20068;-72
2022/10/24 13:28:18;;;;;;;3.83;0.47;;;19.00;99.90;;;;;;4983125;28;20046;-73
2022/10/24 13:31:10;;;;;;;2.90;0.60;;;19.00;99.90;;;;;;5007434;28;20033;-72
2022/10/24 13:33:43;;;;;;;5.50;0.65;;;19.10;99.90;;;;;;5021210;28;20216;-72
2022/10/24 13:36:18;;;;;;;5.20;0.93;;;19.10;99.90;;;;;;5021030;28;20037;-71
2022/10/24 13:39:00;;;;;;;2.22;0.70;;;19.00;99.90;;;;;;5027484;28;20104;-72
2022/10/24 13:41:37;;;;;;;3.80;0.85;;;19.10;99.90;;;;;;5039364;28;20057;-73
2022/10/24 13:44:24;;;;;;;2.47;0.70;;;19.00;99.90;;;;;;5021232;28;20362;-72
2022/10/24 13:47:06;;;;;;;2.97;0.75;;;19.00;99.90;;;;;;5004027;28;20033;-72
2022/10/24 13:49:50;;;;;;;3.17;0.63;;;18.90;99.90;;;;;;5020870;28;20052;-73
2022/10/24 13:52:28;;;;;;;5.63;0.88;;;19.00;99.90;;;;;;5020487;28;20034;-73
2022/10/24 13:55:12;;;;;;;2.10;0.63;;;19.00;99.90;;;;;;5021674;28;20053;-71
2022/10/24 13:58:26;;;;;;;2.85;0.77;;;19.00;99.90;;;;;;5021152;28;20037;-73
2022/10/24 14:00:59;;;;;;;4.57;0.82;;;19.10;99.90;;;;;;4999634;28;20057;-75
2022/10/24 14:03:27;;;;;;;5.70;0.80;;;19.10;99.90;;;;;;4999354;28;20053;-73
2022/10/24 14:06:02;;;;;;;4.22;0.70;;;19.20;99.90;;;;;;5001901;28;20085;-72
2022/10/24 14:08:31;;;;;;;4.55;0.70;;;19.20;99.90;;;;;;5001316;28;20097;-72
2022/10/24 14:11:00;;;;;;;5.20;0.80;;;19.20;99.90;;;;;;5001197;28;20024;-74
2022/10/24 14:13:29;;;;;;;4.15;0.70;;;19.10;99.90;;;;;;5000926;28;20254;-72
2022/10/24 14:15:57;;;;;;;;;;;19.10;99.90;;;;;;5002260;28;20097;-72
2022/10/24 14:18:23;;;;;;;3.22;1.10;;;19.10;99.90;;;;;;4983253;28;19964;-71
2022/10/24 14:20:59;;;;;;;5.47;0.90;;;19.00;99.90;;;;;;5001201;28;20038;-73
2022/10/24 14:23:37;;;;;;;3.08;0.70;;;18.90;99.90;;;;;;5000914;28;20030;-73
2022/10/24 14:26:14;;;;;;;3.17;0.85;;;18.80;99.90;;;;;;5001440;28;20038;-73
2022/10/24 14:28:59;;;;;;;3.25;0.73;;;18.90;99.90;;;;;;5001490;28;20038;-74
2022/10/24 14:31:29;;;;;;;3.88;1.02;;;18.80;99.90;;;;;;5000637;28;20216;-74
2022/10/24 14:33:57;;;;;;;5.75;0.90;;;18.70;99.90;;;;;;5001483;28;20035;-71
2022/10/24 14:36:31;;;;;;;2.17;0.55;;;18.70;99.90;;;;;;4997751;28;20082;-72
2022/10/24 14:38:59;;;;;;;2.33;0.65;;;18.70;99.90;;;;;;4981379;28;20077;-71
2022/10/24 14:41:37;;;;;;;4.38;0.70;;;18.70;99.90;;;;;;4994247;28;20112;-73
2022/10/24 14:44:04;;;;;;;3.78;1.38;;;18.60;99.90;;;;;;5001095;28;20220;-71
2022/10/24 14:46:36;;;;;;;6.20;0.98;;;18.70;99.90;;;;;;4981147;28;20355;-73
2022/10/24 14:49:26;;;;;;;4.75;1.20;;;18.90;99.90;;;;;;4981421;28;20096;-72
2022/10/24 14:51:54;;;;;;;2.90;1.20;;;19.70;99.90;;;;;;4987537;28;20316;-73
2022/10/24 14:54:21;;;;;;;;;;;20.70;99.90;;;;;;5001117;28;20056;-71
2022/10/24 14:56:48;;;;;;;4.07;0.85;;;21.10;99.70;;;;;;5001283;28;19925;-74
2022/10/24 14:59:34;;;;;;;2.92;0.70;;;21.60;99.20;;;;;;5000593;28;20094;-72
2022/10/24 15:02:21;;;;;;;3.65;0.93;;;21.60;98.10;;;;;;5005879;28;20108;-73
2022/10/24 15:04:47;;;;;;;2.88;0.88;;;21.30;98.30;;;;;;5020681;28;20029;-71
2022/10/24 15:07:21;;;;;;;3.33;0.98;;;21.60;97.60;;;;;;5020500;28;20038;-72
2022/10/24 15:09:55;;;;;;;2.63;1.20;;;21.70;97.50;;;;;;5020299;28;20052;-72
2022/10/24 15:12:46;;;;;;;2.00;0.60;;;22.00;96.80;;;;;;5020156;28;20038;-72
2022/10/24 15:15:22;;;;;;;4.32;1.20;;;21.60;96.40;;;;;;5003221;28;20109;-72
2022/10/24 15:17:48;;;;;;;4.43;0.73;;;21.50;97.00;;;;;;4990502;28;20022;-70
2022/10/24 15:20:21;;;;;;;2.35;0.80;;;21.60;96.70;;;;;;5023630;28;20038;-69
2022/10/24 15:22:49;;;;;;;3.80;0.52;;;21.10;96.90;;;;;;5023785;28;20509;-71
2022/10/24 15:25:32;;;;;;;3.00;1.10;;;20.80;97.60;;;;;;5023689;28;20481;-73
2022/10/24 15:27:59;;;;;;;2.70;0.80;;;20.70;98.20;;;;;;5006291;28;20038;-72
2022/10/24 15:30:36;;;;;;;1.65;0.60;;;20.70;97.90;;;;;;5023541;28;20026;-73
2022/10/24 15:33:04;;;;;;;2.67;0.60;;;20.70;98.00;;;;;;5024311;28;20076;-73
2022/10/24 15:35:33;;;;;;;4.57;1.03;;;20.60;98.40;;;;;;5006305;28;20040;-70
2022/10/24 15:38:13;;;;;;;2.42;0.85;;;19.80;99.10;;;;;;5023807;28;20707;-71
2022/10/24 15:40:43;;;;;;;2.75;0.90;;;19.60;99.70;;;;;;5023349;28;20097;-72
2022/10/24 15:43:14;;;;;;;2.28;0.90;;;19.10;99.90;;;;;;5024096;28;20030;-72
2022/10/24 15:45:40;;;;;;;5.20;0.90;;;18.70;99.90;;;;;;5010078;28;20105;-72
2022/10/24 15:48:06;;;;;;;3.75;1.10;;;18.60;99.90;;;;;;5004002;28;20300;-74
2022/10/24 15:50:33;;;;;;;2.35;0.98;;;18.40;99.90;;;;;;5003617;28;20089;-73
2022/10/24 15:53:01;;;;;;;4.22;1.00;;;18.20;99.90;;;;;;5019337;28;20022;-73
2022/10/24 15:55:28;;;;;;;3.20;0.57;;;18.10;99.90;;;;;;5023221;28;20038;-73
2022/10/24 15:57:56;;;;;;;2.25;0.77;;;18.00;99.90;;;;;;5023593;28;20087;-73
2022/10/24 16:00:22;;;;;;;4.97;1.33;;;17.90;99.90;;;;;;5023036;28;20093;-74
2022/10/24 16:02:51;;;;;;;3.65;2.22;;;17.90;99.90;;;;;;5022721;28;20301;-72
2022/10/24 16:05:22;;;;;;;5.57;1.90;;;17.80;99.90;;;;;;5023105;28;20514;-72
2022/10/24 16:07:50;;;;;;;3.97;1.60;;;17.80;99.90;;;;;;5023505;28;20026;-73
2022/10/24 16:10:18;;;;;;;7.63;3.15;;;17.70;99.90;;;;;;5013112;28;20032;-71
2022/10/24 16:12:44;;;;;;;12.67;7.13;;;17.70;99.90;;;;;;4970068;28;20041;-73
2022/10/24 16:15:38;;;;;;;8.98;5.72;;;17.60;99.90;;;;;;5003626;28;20371;-74
2022/10/24 16:18:04;;;;;;;6.03;3.30;;;17.50;99.90;;;;;;5000092;28;20107;-75
2022/10/24 16:20:30;;;;;;;4.60;2.28;;;17.50;99.90;;;;;;5006448;28;20037;-72
2022/10/24 16:22:56;;;;;;;10.57;6.20;;;17.40;99.90;;;;;;5022649;28;20083;-74
2022/10/24 16:25:27;;;;;;;6.30;2.50;;;17.30;99.90;;;;;;5022698;28;20034;-72
2022/10/24 16:27:54;;;;;;;4.05;1.70;;;17.20;99.90;;;;;;5021942;28;20034;-71
2022/10/24 16:30:23;;;;;;;4.97;1.77;;;17.10;99.90;;;;;;5022074;28;20075;-71
2022/10/24 16:32:49;;;;;;;3.92;1.40;;;17.00;99.90;;;;;;5022716;28;20358;-73
2022/10/24 16:35:26;;;;;;;4.20;1.75;;;17.00;99.90;;;;;;5005178;28;20329;-74
2022/10/24 16:37:52;;;;;;;3.88;1.80;;;16.90;99.90;;;;;;5022443;28;20029;-74
2022/10/24 16:40:19;;;;;;;4.30;1.90;;;16.80;99.90;;;;;;5022290;28;20030;-72
2022/10/24 16:42:48;;;;;;;4.85;1.85;;;16.80;99.90;;;;;;5022486;28;20038;-72
2022/10/24 16:45:14;;;;;;;4.97;2.22;;;16.80;99.90;;;;;;5022586;28;20013;-74
2022/10/24 16:47:40;;;;;;;4.32;2.47;;;16.70;99.90;;;;;;5021590;28;20133;-74
2022/10/24 16:50:06;;;;;;;3.72;1.40;;;16.70;99.90;;;;;;5022352;28;20280;-73
2022/10/24 16:52:32;;;;;;;4.75;1.98;;;16.70;99.90;;;;;;5021493;28;20072;-72
2022/10/24 16:54:58;;;;;;;4.88;2.25;;;16.80;99.90;;;;;;5022320;28;20038;-70
2022/10/24 16:57:23;;;;;;;5.60;1.80;;;16.80;99.90;;;;;;5021427;28;20061;-73
2022/10/24 16:59:50;;;;;;;5.38;1.50;;;16.80;99.90;;;;;;5021909;28;20041;-74
2022/10/24 17:02:17;;;;;;;5.05;1.42;;;16.80;99.90;;;;;;5004035;28;20069;-72
2022/10/24 17:04:43;;;;;;;6.65;2.35;;;16.80;99.90;;;;;;5021254;28;20034;-72
2022/10/24 17:07:10;;;;;;;5.10;1.65;;;16.80;99.90;;;;;;5022108;28;20033;-71
2022/10/24 17:09:36;;;;;;;4.90;1.83;;;16.90;99.90;;;;;;5017126;28;20421;-71
2022/10/24 17:12:02;;;;;;;3.22;1.70;;;16.90;99.90;;;;;;4984937;28;20223;-72
2022/10/24 17:14:30;;;;;;;3.50;1.48;;;16.90;99.90;;;;;;5001602;28;20061;-72
2022/10/24 17:16:56;;;;;;;5.00;1.37;;;16.90;99.90;;;;;;5001939;28;20102;-70
2022/10/24 17:19:22;;;;;;;3.10;1.27;;;16.80;99.90;;;;;;5002010;28;20022;-72
2022/10/24 17:21:49;;;;;;;4.25;1.77;;;16.80;99.90;;;;;;5016274;28;20061;-71
2022/10/24 17:24:20;;;;;;;4.35;1.38;;;16.70;99.90;;;;;;5021752;28;20048;-72
2022/10/24 17:26:47;;;;;;;4.18;1.55;;;16.70;99.90;;;;;;5022144;28;20041;-70
2022/10/24 17:29:22;;;;;;;3.95;1.20;;;16.60;99.90;;;;;;5021691;28;20028;-71
2022/10/24 17:31:48;;;;;;;3.42;1.50;;;16.60;99.90;;;;;;5021476;28;20315;-71
2022/10/24 17:34:13;;;;;;;5.72;1.60;;;16.60;99.90;;;;;;5021411;28;20037;-71
2022/10/24 17:36:43;;;;;;;3.22;1.20;;;16.50;99.90;;;;;;5021118;28;20103;-72
2022/10/24 17:39:19;;;;;;;4.20;1.65;;;16.40;99.90;;;;;;5003696;28;20270;-71
2022/10/24 17:41:45;;;;;;;4.47;1.73;;;16.40;99.90;;;;;;5020897;28;20025;-71
2022/10/24 17:44:16;;;;;;;4.32;1.60;;;16.30;99.90;;;;;;5020233;28;20029;-72
2022/10/24 17:46:43;;;;;;;6.90;2.05;;;16.30;99.90;;;;;;5001089;28;20319;-70
2022/10/24 17:49:10;;;;;;;6.38;2.38;;;16.30;99.90;;;;;;5001382;28;20101;-72
2022/10/24 17:51:38;;;;;;;5.78;1.50;;;16.30;99.90;;;;;;5005272;28;20088;-71
2022/10/24 17:54:04;;;;;;;;;;;16.30;99.90;;;;;;5022259;28;20109;-71
2022/10/24 17:56:33;;;;;;;3.88;1.50;;;16.20;99.90;;;;;;5021265;28;20123;-71
2022/10/24 17:58:58;;;;;;;;;;;16.30;99.90;;;;;;5021908;28;20210;-71
2022/10/24 18:01:24;;;;;;;4.35;1.65;;;16.30;99.90;;;;;;5020392;28;19909;-70
2022/10/24 18:03:50;;;;;;;3.95;1.70;;;16.30;99.90;;;;;;5021172;28;20060;-71
2022/10/24 18:06:16;;;;;;;4.53;2.38;;;16.30;99.90;;;;;;5003457;28;20030;-71
2022/10/24 18:08:42;;;;;;;5.45;1.98;;;16.30;99.90;;;;;;5020444;28;20089;-71
2022/10/24 18:11:08;;;;;;;5.15;2.17;;;16.40;99.90;;;;;;5004399;28;20042;-73
2022/10/24 18:13:38;;;;;;;4.95;2.50;;;16.40;99.90;;;;;;5000984;28;20030;-72
2022/10/24 18:16:13;;;;;;;5.10;1.02;;;16.50;99.90;;;;;;5001642;28;20035;-70
2022/10/24 18:18:42;;;;;;;3.03;0.77;;;16.50;99.90;;;;;;5000899;28;20033;-70
2022/10/24 18:21:28;;;;;;;3.80;0.40;;;15.50;99.90;;;;;;4976778;28;20045;-69
2022/10/24 18:23:54;;;;;;;3.65;0.63;;;13.00;99.90;;;;;;5020950;28;20041;-72
2022/10/24 18:26:25;;;;;;;2.42;0.70;;;12.30;99.90;;;;;;5020944;28;20026;-71